Time;durP1;ratioP1;P1;durP2;ratioP2;P2;SDS_P1;SDS_P2;PMS_P1;PMS_P2;Temp;Humidity;BMP_temperature;BMP_pressure;BME280_temperature;BME280_humidity;BME280_pressure;Samples;Min_cycle;Max_cycle;Signal;HPM_P1;HPM_P2
2021/04/10 00:00:29;;;;;;;2.15;0.65;;;17.50;29.80;;;;;;2362571;53;21210;-62
2021/04/10 00:02:59;;;;;;;2.65;1.00;;;17.40;29.80;;;;;;2346716;53;21109;-62
2021/04/10 00:05:26;;;;;;;3.28;0.90;;;17.40;29.80;;;;;;2341019;53;21000;-62
2021/04/10 00:07:52;;;;;;;3.03;0.80;;;17.40;29.90;;;;;;2591792;52;21016;-62
2021/04/10 00:10:20;;;;;;;4.22;0.77;;;17.40;30.00;;;;;;2350170;53;20921;-62
2021/04/10 00:12:47;;;;;;;3.87;1.12;;;17.30;30.00;;;;;;2360788;53;20952;-62
2021/04/10 00:15:15;;;;;;;3.12;1.00;;;17.30;30.00;;;;;;2594103;52;21483;-62
2021/04/10 00:17:42;;;;;;;2.67;0.70;;;17.30;30.10;;;;;;2366035;53;20984;-62
2021/04/10 00:20:16;;;;;;;3.12;1.00;;;17.30;30.10;;;;;;2367527;53;20949;-62
2021/04/10 00:22:42;;;;;;;2.78;1.15;;;17.30;30.30;;;;;;2603343;52;21645;-62
2021/04/10 00:25:09;;;;;;;2.78;0.90;;;17.20;30.20;;;;;;2369855;54;21444;-62
2021/04/10 00:27:36;;;;;;;3.00;0.82;;;17.30;30.90;;;;;;2364697;53;20921;-62
2021/04/10 00:30:04;;;;;;;4.03;1.02;;;17.20;30.20;;;;;;2592291;52;20965;-62
2021/04/10 00:32:30;;;;;;;5.05;1.00;;;17.20;30.30;;;;;;2351053;53;20996;-62
2021/04/10 00:34:56;;;;;;;2.25;0.88;;;17.20;30.30;;;;;;2342648;53;20980;-62
2021/04/10 00:37:24;;;;;;;3.92;1.20;;;17.20;30.40;;;;;;2345409;53;20956;-62
2021/04/10 00:39:50;;;;;;;5.50;1.27;;;17.20;30.60;;;;;;2339131;53;20972;-62
2021/04/10 00:42:16;;;;;;;2.40;0.80;;;17.10;30.50;;;;;;2342198;55;20940;-62
2021/04/10 00:44:45;;;;;;;3.15;1.00;;;17.10;30.60;;;;;;2339337;55;21019;-62
2021/04/10 00:47:11;;;;;;;4.35;0.90;;;17.10;30.70;;;;;;2298771;54;20949;-62
2021/04/10 00:49:37;;;;;;;3.25;0.90;;;17.00;30.70;;;;;;2335845;53;21694;-62
2021/04/10 00:52:04;;;;;;;2.72;1.00;;;17.00;31.40;;;;;;2335889;53;21348;-62
2021/04/10 00:54:31;;;;;;;3.60;1.12;;;17.00;30.90;;;;;;2365588;53;20946;-63
2021/04/10 00:56:57;;;;;;;2.55;0.93;;;17.00;31.00;;;;;;2608293;52;20968;-62
2021/04/10 00:59:23;;;;;;;4.75;1.00;;;17.00;31.00;;;;;;2353188;53;21517;-62
2021/04/10 01:01:50;;;;;;;3.15;0.90;;;17.00;31.00;;;;;;2364903;53;21430;-62
2021/04/10 01:04:16;;;;;;;2.55;0.90;;;17.00;31.20;;;;;;2363305;53;21022;-62
2021/04/10 01:06:42;;;;;;;1.85;0.80;;;16.90;31.10;;;;;;2356467;53;20952;-61
2021/04/10 01:09:08;;;;;;;3.62;0.90;;;16.90;31.20;;;;;;2337271;53;20910;-62
2021/04/10 01:15:44;;;;;;;2.92;1.00;;;16.90;31.30;;;;;;2364510;53;20906;-62
2021/04/10 01:18:20;;;;;;;2.58;1.00;;;16.90;31.50;;;;;;2601640;52;20958;-62
2021/04/10 01:21:12;;;;;;;2.42;0.62;;;16.90;31.60;;;;;;2366360;53;21036;-62
2021/04/10 01:27:25;;;;;;;5.10;0.98;;;16.80;31.90;;;;;;2358747;53;20962;-62
2021/04/10 01:30:59;;;;;;;2.75;1.00;;;16.80;32.10;;;;;;2364425;53;21192;-62
2021/04/10 01:33:28;;;;;;;3.80;0.73;;;16.60;31.90;;;;;;2615225;52;20978;-62
2021/04/10 01:35:56;;;;;;;3.50;0.93;;;16.50;32.20;;;;;;2357511;53;21791;-62
2021/04/10 01:38:23;;;;;;;2.80;0.90;;;16.40;32.40;;;;;;2336050;53;20931;-62
2021/04/10 01:40:50;;;;;;;3.47;0.85;;;16.30;32.90;;;;;;2364645;53;21064;-61
2021/04/10 01:43:16;;;;;;;3.22;0.93;;;16.20;32.90;;;;;;2355697;53;20922;-63
2021/04/10 01:45:42;;;;;;;1.77;0.68;;;16.10;33.30;;;;;;2365057;53;21000;-62
2021/04/10 01:48:10;;;;;;;3.40;0.82;;;16.00;33.30;;;;;;2352574;53;21315;-62
2021/04/10 01:50:38;;;;;;;1.85;0.73;;;15.90;33.70;;;;;;2611159;52;21030;-62
2021/04/10 01:53:05;;;;;;;2.60;0.70;;;15.80;33.70;;;;;;2362613;53;20972;-62
2021/04/10 01:55:31;;;;;;;3.12;0.90;;;15.70;34.10;;;;;;2348944;53;21060;-62
2021/04/10 01:57:57;;;;;;;3.20;1.00;;;15.70;34.30;;;;;;2609260;52;20931;-62
2021/04/10 02:00:27;;;;;;;2.28;0.70;;;15.60;34.50;;;;;;2615568;52;20938;-62
2021/04/10 02:02:57;;;;;;;3.85;1.02;;;15.60;34.80;;;;;;2367590;53;20986;-62
2021/04/10 02:05:26;;;;;;;3.05;0.80;;;15.50;35.30;;;;;;2356845;53;20923;-61
2021/04/10 02:07:52;;;;;;;1.80;0.73;;;15.40;35.30;;;;;;2616393;52;20951;-62
2021/04/10 02:10:25;;;;;;;2.97;0.80;;;15.30;35.70;;;;;;2608943;52;21460;-62
2021/04/10 02:12:52;;;;;;;3.40;0.80;;;15.10;36.10;;;;;;2321885;54;21039;-62
2021/04/10 02:15:19;;;;;;;3.05;0.90;;;15.00;36.10;;;;;;2364180;53;20918;-62
2021/04/10 02:17:47;;;;;;;2.92;1.12;;;14.90;36.50;;;;;;2357109;53;20971;-62
2021/04/10 02:20:16;;;;;;;4.03;1.10;;;14.80;36.90;;;;;;2364858;53;20926;-62
2021/04/10 02:22:45;;;;;;;2.60;0.90;;;14.70;37.30;;;;;;2364787;53;20986;-62
2021/04/10 02:25:12;;;;;;;2.37;0.80;;;14.60;37.50;;;;;;2364722;53;20962;-62
2021/04/10 02:27:39;;;;;;;2.72;0.90;;;14.50;37.70;;;;;;2612089;52;21032;-62
2021/04/10 02:30:07;;;;;;;2.37;0.90;;;14.50;38.00;;;;;;2356336;53;21002;-62
2021/04/10 02:33:03;;;;;;;2.17;0.80;;;14.40;38.10;;;;;;2363658;53;20938;-61
2021/04/10 02:35:40;;;;;;;2.50;0.90;;;14.40;38.80;;;;;;2364860;53;20887;-62
2021/04/10 02:38:06;;;;;;;3.10;1.00;;;14.40;39.20;;;;;;2358567;53;20964;-62
2021/04/10 02:40:37;;;;;;;2.62;0.90;;;14.30;39.20;;;;;;2359513;53;20922;-62
2021/04/10 02:43:08;;;;;;;2.83;1.00;;;14.20;39.60;;;;;;2364306;53;20935;-62
2021/04/10 02:45:34;;;;;;;2.85;0.80;;;14.10;40.10;;;;;;2366018;53;21448;-62
2021/04/10 02:48:06;;;;;;;3.65;1.00;;;14.10;40.10;;;;;;2364525;53;21010;-62
2021/04/10 02:50:33;;;;;;;2.55;0.93;;;14.00;40.70;;;;;;2365020;53;20903;-62
2021/04/10 02:53:02;;;;;;;2.60;0.98;;;13.90;40.80;;;;;;2364943;53;20934;-62
2021/04/10 02:55:38;;;;;;;3.17;0.90;;;13.90;41.10;;;;;;2356754;53;20982;-62
2021/04/10 02:58:06;;;;;;;3.72;0.80;;;13.80;41.60;;;;;;2364673;53;21436;-62
2021/04/10 03:01:22;;;;;;;4.00;1.00;;;13.70;41.40;;;;;;2361164;53;20920;-62
2021/04/10 03:03:48;;;;;;;3.37;0.70;;;13.60;42.50;;;;;;2362641;53;20936;-62
2021/04/10 03:06:14;;;;;;;2.75;0.70;;;13.40;41.80;;;;;;2357415;53;21094;-62
2021/04/10 03:08:41;;;;;;;3.03;0.80;;;13.30;42.10;;;;;;2364438;53;20954;-62
2021/04/10 03:11:07;;;;;;;2.00;0.70;;;13.20;42.60;;;;;;2362712;53;20931;-61
2021/04/10 03:13:34;;;;;;;1.95;0.80;;;13.10;43.00;;;;;;2360068;53;21423;-62
2021/04/10 03:16:00;;;;;;;2.87;1.00;;;13.00;43.30;;;;;;2615682;52;21356;-61
2021/04/10 03:18:27;;;;;;;3.28;0.95;;;12.90;43.60;;;;;;2615671;52;21049;-62
2021/04/10 03:20:55;;;;;;;2.92;0.90;;;12.90;44.20;;;;;;2338491;54;20914;-62
2021/04/10 03:23:21;;;;;;;5.45;1.20;;;12.80;44.80;;;;;;2364930;53;20939;-62
2021/04/10 03:25:47;;;;;;;2.05;0.82;;;12.70;45.00;;;;;;2357406;53;22329;-62
2021/04/10 03:28:14;;;;;;;2.58;1.05;;;12.70;45.40;;;;;;2615118;52;20955;-62
2021/04/10 03:30:40;;;;;;;2.97;0.85;;;12.60;45.70;;;;;;2364752;53;20915;-62
2021/04/10 03:33:06;;;;;;;2.20;0.80;;;12.60;45.90;;;;;;2364328;53;20909;-62
2021/04/10 03:35:33;;;;;;;2.72;0.80;;;12.60;46.30;;;;;;2368619;53;20974;-62
2021/04/10 03:37:59;;;;;;;2.60;0.85;;;12.50;46.50;;;;;;2350945;53;20997;-61
2021/04/10 03:40:26;;;;;;;2.90;0.85;;;12.50;46.80;;;;;;2597125;52;20879;-62
2021/04/10 03:42:55;;;;;;;4.18;0.88;;;12.50;47.30;;;;;;2309259;54;21009;-62
2021/04/10 03:45:22;;;;;;;3.00;0.90;;;12.40;47.50;;;;;;2605053;52;20942;-62
2021/04/10 03:47:51;;;;;;;3.08;1.05;;;12.40;47.80;;;;;;2347806;53;20920;-62
2021/04/10 03:50:17;;;;;;;1.87;0.80;;;12.50;48.10;;;;;;2352458;53;20977;-62
2021/04/10 03:52:44;;;;;;;3.45;1.52;;;12.40;48.40;;;;;;2616882;52;21211;-62
2021/04/10 03:55:11;;;;;;;4.10;1.48;;;12.40;48.70;;;;;;2365282;53;21469;-61
2021/04/10 03:57:38;;;;;;;5.35;1.30;;;12.40;49.10;;;;;;2369531;53;20945;-62
2021/04/10 04:00:07;;;;;;;5.03;2.03;;;12.40;49.30;;;;;;2369854;53;20933;-64
2021/04/10 04:02:34;;;;;;;3.08;1.30;;;12.40;49.50;;;;;;2352802;53;21008;-62
2021/04/10 04:05:00;;;;;;;3.00;1.40;;;12.40;49.50;;;;;;2340644;53;20961;-62
2021/04/10 04:07:27;;;;;;;7.68;2.00;;;12.40;49.70;;;;;;2370084;53;20970;-61
2021/04/10 04:09:53;;;;;;;3.50;1.95;;;12.50;50.00;;;;;;2370781;53;21028;-61
2021/04/10 04:12:20;;;;;;;2.50;1.10;;;12.50;50.20;;;;;;2356067;53;20912;-61
2021/04/10 04:14:49;;;;;;;2.25;1.00;;;12.50;50.30;;;;;;2351696;53;21041;-62
2021/04/10 04:17:15;;;;;;;1.67;0.70;;;12.60;50.60;;;;;;2353710;53;21032;-62
2021/04/10 04:19:41;;;;;;;3.30;0.90;;;12.60;50.70;;;;;;2612866;52;21032;-62
2021/04/10 04:22:08;;;;;;;4.75;1.12;;;12.70;50.90;;;;;;2344086;53;20954;-61
2021/04/10 04:24:37;;;;;;;2.45;0.82;;;12.70;51.00;;;;;;2363965;53;21019;-62
2021/04/10 04:27:04;;;;;;;2.12;0.88;;;12.70;51.10;;;;;;2368440;53;20930;-61
2021/04/10 04:29:49;;;;;;;2.80;0.90;;;12.70;51.20;;;;;;2622156;52;20970;-61
2021/04/10 04:32:15;;;;;;;3.10;1.00;;;12.80;50.90;;;;;;2367573;53;20922;-62
2021/04/10 04:34:41;;;;;;;3.55;0.90;;;12.70;51.00;;;;;;2369732;53;20950;-61
2021/04/10 04:37:08;;;;;;;3.83;1.23;;;12.70;50.90;;;;;;2367035;53;20914;-62
2021/04/10 04:39:34;;;;;;;3.90;0.93;;;12.80;51.00;;;;;;2373523;53;20934;-61
2021/04/10 04:42:00;;;;;;;2.28;1.00;;;12.80;51.10;;;;;;2615313;52;20929;-62
2021/04/10 04:44:27;;;;;;;2.40;0.80;;;12.80;51.20;;;;;;2365828;53;21013;-61
2021/04/10 04:46:53;;;;;;;2.40;0.80;;;12.70;51.10;;;;;;2370383;54;21001;-61
2021/04/10 04:49:20;;;;;;;2.72;1.23;;;12.70;51.20;;;;;;2370532;54;21768;-61
2021/04/10 04:51:46;;;;;;;2.37;1.08;;;12.60;51.30;;;;;;2370495;53;21447;-61
2021/04/10 04:54:12;;;;;;;3.47;0.90;;;12.60;51.50;;;;;;2589540;52;20965;-62
2021/04/10 04:56:40;;;;;;;2.85;1.10;;;12.50;51.70;;;;;;2622195;52;20930;-62
2021/04/10 04:59:06;;;;;;;3.20;0.80;;;12.40;51.70;;;;;;2606222;52;20953;-61
2021/04/10 05:01:32;;;;;;;3.20;1.15;;;12.40;51.90;;;;;;2353246;53;20945;-62
2021/04/10 05:03:58;;;;;;;4.57;1.05;;;12.30;52.10;;;;;;2348318;53;20959;-62
2021/04/10 05:06:24;;;;;;;2.97;0.93;;;12.30;52.30;;;;;;2368688;54;20946;-62
2021/04/10 05:08:51;;;;;;;2.55;1.17;;;12.20;52.40;;;;;;2370704;54;21527;-63
2021/04/10 05:11:17;;;;;;;2.75;1.10;;;12.20;52.60;;;;;;2369647;54;20934;-62
2021/04/10 05:13:43;;;;;;;2.62;1.00;;;12.20;52.80;;;;;;2348901;53;20968;-62
2021/04/10 05:16:10;;;;;;;2.22;0.90;;;12.10;52.90;;;;;;2354196;53;21417;-62
2021/04/10 05:18:36;;;;;;;2.35;0.90;;;12.10;53.00;;;;;;2353747;53;20960;-62
2021/04/10 05:21:03;;;;;;;2.45;1.00;;;12.10;53.20;;;;;;2349860;53;20910;-61
2021/04/10 05:23:31;;;;;;;2.95;1.00;;;12.10;53.30;;;;;;2620765;52;20971;-62
2021/04/10 05:25:59;;;;;;;5.10;1.17;;;12.00;53.40;;;;;;2366797;53;20938;-62
2021/04/10 05:28:25;;;;;;;3.00;0.88;;;12.00;53.50;;;;;;2370835;53;21479;-62
2021/04/10 05:30:52;;;;;;;2.15;0.90;;;12.00;53.60;;;;;;2369895;54;21017;-62
2021/04/10 05:33:18;;;;;;;2.35;0.90;;;11.90;53.70;;;;;;2346157;53;21013;-62
2021/04/10 05:35:45;;;;;;;2.65;1.05;;;11.90;53.90;;;;;;2616262;52;20994;-62
2021/04/10 05:38:11;;;;;;;2.95;0.90;;;11.90;54.00;;;;;;2622755;52;20890;-62
2021/04/10 05:40:38;;;;;;;3.08;0.98;;;11.90;54.20;;;;;;2597810;52;20945;-62
2021/04/10 05:43:04;;;;;;;5.22;1.10;;;11.80;54.20;;;;;;2363625;53;20919;-63
2021/04/10 05:45:31;;;;;;;3.10;0.98;;;11.80;54.40;;;;;;2346994;53;20996;-62
2021/04/10 05:47:57;;;;;;;2.03;0.90;;;11.80;54.40;;;;;;2369146;54;21374;-61
2021/04/10 05:50:25;;;;;;;2.00;0.93;;;11.90;54.70;;;;;;2622738;52;20969;-62
2021/04/10 05:52:51;;;;;;;2.75;1.08;;;11.80;54.60;;;;;;2370193;54;20938;-61
2021/04/10 05:55:19;;;;;;;2.17;0.90;;;11.80;54.70;;;;;;2369866;53;20986;-63
2021/04/10 05:57:45;;;;;;;2.50;1.23;;;11.90;54.80;;;;;;2360008;53;20985;-62
2021/04/10 06:00:12;;;;;;;5.05;1.17;;;11.90;54.70;;;;;;2358469;53;20907;-62
2021/04/10 06:02:39;;;;;;;3.17;0.90;;;11.90;54.70;;;;;;2369159;53;21040;-62
2021/04/10 06:05:06;;;;;;;6.10;0.98;;;11.90;54.90;;;;;;2347417;53;20940;-62
2021/04/10 06:07:33;;;;;;;3.30;1.23;;;11.90;55.00;;;;;;2370170;53;20946;-61
2021/04/10 06:09:59;;;;;;;2.65;0.95;;;11.90;55.00;;;;;;2620540;52;20954;-62
2021/04/10 06:12:28;;;;;;;2.20;0.88;;;12.00;55.00;;;;;;2598201;52;21782;-62
2021/04/10 06:14:55;;;;;;;3.30;0.82;;;12.00;55.10;;;;;;2370442;54;20941;-62
2021/04/10 06:17:21;;;;;;;3.58;1.10;;;12.00;55.20;;;;;;2364503;53;21794;-62
2021/04/10 06:19:47;;;;;;;2.45;0.85;;;12.00;55.20;;;;;;2353631;54;21792;-63
2021/04/10 06:22:27;;;;;;;2.70;1.00;;;12.10;55.30;;;;;;2346881;53;21391;-62
2021/04/10 06:24:54;;;;;;;2.80;1.00;;;12.10;55.40;;;;;;2341178;53;21039;-61
2021/04/10 06:27:21;;;;;;;2.42;1.10;;;12.10;55.30;;;;;;2353469;53;20926;-62
2021/04/10 06:29:47;;;;;;;3.00;1.27;;;12.20;55.40;;;;;;2347398;53;20945;-62
2021/04/10 06:32:14;;;;;;;2.75;0.93;;;12.20;55.40;;;;;;2365826;53;21013;-62
2021/04/10 06:34:40;;;;;;;2.22;0.88;;;12.20;55.40;;;;;;2622306;52;20930;-62
2021/04/10 06:37:08;;;;;;;2.30;1.00;;;12.20;55.40;;;;;;2348837;54;21036;-62
2021/04/10 06:39:35;;;;;;;3.22;1.15;;;12.20;55.40;;;;;;2370322;53;20947;-62
2021/04/10 06:42:05;;;;;;;2.90;1.00;;;12.20;55.30;;;;;;2369911;53;20950;-62
2021/04/10 06:44:32;;;;;;;2.70;1.20;;;12.20;55.30;;;;;;2347850;53;21452;-62
2021/04/10 06:47:04;;;;;;;4.45;1.20;;;12.20;55.40;;;;;;2368209;53;21232;-62
2021/04/10 06:49:31;;;;;;;3.47;1.23;;;12.20;55.30;;;;;;2353318;53;20949;-62
2021/04/10 06:52:00;;;;;;;4.50;1.55;;;12.30;55.50;;;;;;2607525;52;20964;-62
2021/04/10 06:54:31;;;;;;;5.75;1.70;;;12.20;55.30;;;;;;2370227;54;20982;-62
2021/04/10 06:57:10;;;;;;;5.50;1.62;;;12.30;55.40;;;;;;2619328;52;20994;-62
2021/04/10 07:00:22;;;;;;;2.33;1.02;;;12.30;55.40;;;;;;2620691;52;20937;-62
2021/04/10 07:02:49;;;;;;;2.67;1.08;;;12.30;55.00;;;;;;2623039;52;21446;-61
2021/04/10 07:05:15;;;;;;;1.85;0.73;;;12.30;55.50;;;;;;2616404;52;21668;-62
2021/04/10 07:07:43;;;;;;;3.62;1.12;;;12.30;55.50;;;;;;2346914;53;21764;-62
2021/04/10 07:10:10;;;;;;;2.85;0.85;;;12.30;55.50;;;;;;2357012;53;21016;-62
2021/04/10 07:12:38;;;;;;;4.12;1.30;;;12.30;55.40;;;;;;2364590;54;20939;-62
2021/04/10 07:15:09;;;;;;;3.87;0.90;;;12.30;55.30;;;;;;2620148;52;20969;-62
2021/04/10 07:17:36;;;;;;;2.20;0.90;;;12.30;55.40;;;;;;2346074;53;20993;-62
2021/04/10 07:20:30;;;;;;;2.25;0.80;;;12.30;55.30;;;;;;2621430;52;21646;-63
2021/04/10 07:23:04;;;;;;;2.37;1.12;;;12.30;55.40;;;;;;2597720;52;20981;-62
2021/04/10 07:25:32;;;;;;;2.53;0.70;;;12.30;55.10;;;;;;2613398;52;21004;-62
2021/04/10 07:28:30;;;;;;;2.35;0.80;;;12.30;55.30;;;;;;2347415;53;21001;-62
2021/04/10 07:31:06;;;;;;;4.35;1.02;;;12.20;54.90;;;;;;2335778;54;20998;-62
2021/04/10 07:33:37;;;;;;;2.53;0.70;;;12.20;55.20;;;;;;2370187;53;20917;-62
2021/04/10 07:36:08;;;;;;;3.62;0.80;;;12.20;55.10;;;;;;2370232;53;20914;-61
2021/04/10 07:38:42;;;;;;;2.78;0.93;;;12.20;55.10;;;;;;2621947;52;21004;-62
2021/04/10 07:41:19;;;;;;;4.18;0.80;;;12.10;55.10;;;;;;2370601;54;20965;-61
2021/04/10 07:43:46;;;;;;;3.37;1.00;;;12.10;55.00;;;;;;2345619;53;20961;-62
2021/04/10 07:46:25;;;;;;;2.00;0.82;;;12.00;55.10;;;;;;2620045;52;20906;-61
2021/04/10 07:49:27;;;;;;;1.95;0.85;;;12.00;55.30;;;;;;2348509;53;21760;-61
2021/04/10 07:51:57;;;;;;;2.95;0.80;;;11.90;55.10;;;;;;2370079;53;20914;-62
2021/04/10 07:54:30;;;;;;;2.67;1.00;;;11.90;55.30;;;;;;2368879;53;21797;-61
2021/04/10 07:57:06;;;;;;;2.17;0.85;;;11.90;55.40;;;;;;2370159;53;20926;-62
2021/04/10 08:01:24;;;;;;;1.77;0.70;;;11.90;55.40;;;;;;2373557;53;21014;-62
2021/04/10 08:03:57;;;;;;;1.67;0.68;;;11.90;55.40;;;;;;2369511;53;21889;-62
2021/04/10 08:06:23;;;;;;;1.92;0.70;;;11.90;55.40;;;;;;2370474;54;21008;-62
2021/04/10 08:08:56;;;;;;;2.30;0.80;;;11.90;56.10;;;;;;2369680;54;21073;-62
2021/04/10 08:11:39;;;;;;;3.10;0.80;;;11.90;55.50;;;;;;2360009;53;20944;-62
2021/04/10 08:14:10;;;;;;;1.73;0.70;;;11.90;55.50;;;;;;2590970;52;21412;-62
2021/04/10 08:16:46;;;;;;;2.03;0.90;;;12.00;55.60;;;;;;2351613;53;21501;-62
2021/04/10 08:19:14;;;;;;;2.05;0.80;;;12.00;55.50;;;;;;2371671;53;20926;-62
2021/04/10 08:21:50;;;;;;;2.47;1.10;;;12.00;55.70;;;;;;2345507;53;20973;-62
2021/04/10 08:24:24;;;;;;;2.60;1.15;;;12.10;55.70;;;;;;2587784;52;20925;-62
2021/04/10 08:26:54;;;;;;;2.70;1.02;;;12.10;55.80;;;;;;2623462;52;20946;-62
2021/04/10 08:29:21;;;;;;;1.90;0.68;;;12.20;56.10;;;;;;2622073;52;20946;-62
2021/04/10 08:31:48;;;;;;;2.03;0.80;;;12.20;56.20;;;;;;2594273;52;21521;-62
2021/04/10 08:34:15;;;;;;;2.00;0.70;;;12.30;56.40;;;;;;2613880;52;21001;-62
2021/04/10 08:36:43;;;;;;;5.18;0.93;;;12.40;56.50;;;;;;2347060;53;21013;-62
2021/04/10 08:39:11;;;;;;;2.03;0.80;;;12.40;56.60;;;;;;2356781;53;21601;-62
2021/04/10 08:41:37;;;;;;;2.42;0.80;;;12.50;56.70;;;;;;2590336;52;20949;-63
2021/04/10 08:44:05;;;;;;;2.65;0.80;;;12.60;56.80;;;;;;2360297;53;20956;-62
2021/04/10 08:46:33;;;;;;;2.22;0.80;;;12.70;57.00;;;;;;2332612;54;20949;-62
2021/04/10 08:49:00;;;;;;;2.95;0.90;;;12.70;57.00;;;;;;2597751;52;20958;-62
2021/04/10 08:51:28;;;;;;;2.60;1.05;;;12.90;57.20;;;;;;2367782;53;20962;-62
2021/04/10 08:53:54;;;;;;;2.87;1.00;;;13.00;57.40;;;;;;2370369;54;21801;-62
2021/04/10 08:56:22;;;;;;;1.62;0.75;;;13.10;57.60;;;;;;2370155;53;20886;-62
2021/04/10 08:58:49;;;;;;;1.85;0.85;;;13.20;57.80;;;;;;2622634;52;21005;-63
2021/04/10 09:01:20;;;;;;;2.80;1.05;;;13.30;57.90;;;;;;2370551;54;20922;-62
2021/04/10 09:03:50;;;;;;;2.12;0.90;;;13.40;57.90;;;;;;2622420;52;21046;-63
2021/04/10 09:06:50;;;;;;;2.25;0.98;;;13.60;57.90;;;;;;2370422;53;21037;-63
2021/04/10 09:09:39;;;;;;;1.95;0.80;;;13.80;57.10;;;;;;2621703;52;21005;-62
2021/04/10 09:12:22;;;;;;;1.80;0.68;;;13.90;57.10;;;;;;2373786;54;20993;-63
2021/04/10 09:14:49;;;;;;;;;;;14.00;57.40;;;;;;2375902;53;21006;-64
2021/04/10 09:17:15;;;;;;;1.85;0.62;;;14.20;56.50;;;;;;2618998;52;20066;-62
2021/04/10 09:19:42;;;;;;;1.27;0.60;;;14.20;57.40;;;;;;2622256;52;20921;-63
2021/04/10 09:22:20;;;;;;;3.03;0.60;;;14.40;57.50;;;;;;2369877;53;20930;-62
2021/04/10 09:24:47;;;;;;;1.50;0.60;;;14.40;57.10;;;;;;2622759;52;20952;-62
2021/04/10 09:27:21;;;;;;;2.03;0.80;;;14.50;57.10;;;;;;2622515;52;20957;-62
2021/04/10 09:29:59;;;;;;;3.03;0.80;;;14.60;57.00;;;;;;2345667;53;20929;-63
2021/04/10 09:32:38;;;;;;;1.77;0.80;;;14.70;56.90;;;;;;2369766;53;21017;-63
2021/04/10 09:35:18;;;;;;;1.58;0.70;;;14.90;57.20;;;;;;2573791;53;21515;-63
2021/04/10 09:37:53;;;;;;;1.80;0.75;;;14.90;57.30;;;;;;2358451;53;20957;-62
2021/04/10 09:40:22;;;;;;;1.70;0.70;;;15.10;57.20;;;;;;2587477;52;21893;-62
2021/04/10 09:43:09;;;;;;;2.78;0.70;;;15.20;57.30;;;;;;2369204;54;20898;-64
2021/04/10 09:45:37;;;;;;;2.10;0.93;;;15.40;56.50;;;;;;2369671;54;20989;-63
2021/04/10 09:48:14;;;;;;;3.33;0.57;;;15.60;57.90;;;;;;2622373;52;21979;-63
2021/04/10 09:50:44;;;;;;;2.62;0.70;;;15.90;58.00;;;;;;2622010;52;20925;-62
2021/04/10 09:53:22;;;;;;;2.12;0.80;;;16.20;58.40;;;;;;2622209;52;20984;-63
2021/04/10 09:56:08;;;;;;;2.08;0.77;;;16.40;58.00;;;;;;2622945;52;20922;-63
2021/04/10 09:58:56;;;;;;;2.30;0.80;;;16.70;56.50;;;;;;2370051;53;21959;-63
2021/04/10 10:01:27;;;;;;;1.73;0.70;;;17.10;56.70;;;;;;2369742;53;20981;-63
2021/04/10 10:03:54;;;;;;;1.55;0.68;;;17.30;56.40;;;;;;2369898;53;20946;-63
2021/04/10 10:06:24;;;;;;;2.05;0.98;;;17.60;56.30;;;;;;2369557;53;20917;-66
2021/04/10 10:08:50;;;;;;;2.97;0.62;;;17.90;53.40;;;;;;2370232;54;21013;-66
2021/04/10 10:11:18;;;;;;;1.50;0.55;;;18.00;52.50;;;;;;2622622;52;20906;-65
2021/04/10 10:13:47;;;;;;;3.03;0.73;;;18.20;52.20;;;;;;2616782;52;20930;-65
2021/04/10 10:16:13;;;;;;;1.52;0.52;;;18.30;51.40;;;;;;2369728;54;20910;-63
2021/04/10 10:18:52;;;;;;;2.00;0.60;;;18.30;50.60;;;;;;2622867;52;20998;-62
2021/04/10 10:21:20;;;;;;;1.95;0.57;;;18.40;50.10;;;;;;2370008;54;20985;-63
2021/04/10 10:23:57;;;;;;;1.20;0.50;;;18.50;50.30;;;;;;2370429;53;20989;-63
2021/04/10 10:26:28;;;;;;;1.75;0.50;;;18.50;50.10;;;;;;2369946;54;20941;-63
2021/04/10 10:29:03;;;;;;;2.80;0.70;;;18.60;50.90;;;;;;2345960;53;20949;-63
2021/04/10 10:31:32;;;;;;;4.10;0.82;;;18.80;50.60;;;;;;2623161;52;20899;-63
2021/04/10 10:34:05;;;;;;;2.55;0.88;;;18.90;50.40;;;;;;2369781;53;20945;-63
2021/04/10 10:36:43;;;;;;;1.48;0.60;;;19.00;49.90;;;;;;2623037;52;21732;-63
2021/04/10 10:39:25;;;;;;;0.95;0.47;;;19.00;47.00;;;;;;2337379;54;21318;-63
2021/04/10 10:41:51;;;;;;;2.35;0.60;;;19.10;47.00;;;;;;2347527;53;21264;-62
2021/04/10 10:44:18;;;;;;;1.17;0.55;;;19.00;48.10;;;;;;2583345;52;20968;-63
2021/04/10 10:47:03;;;;;;;1.85;0.60;;;19.00;48.20;;;;;;2370340;53;21286;-64
2021/04/10 10:49:31;;;;;;;2.55;0.62;;;19.00;46.50;;;;;;2369799;54;21053;-65
2021/04/10 10:51:57;;;;;;;3.80;0.82;;;19.00;47.00;;;;;;2370609;54;20922;-62
2021/04/10 10:54:37;;;;;;;4.03;1.48;;;18.90;47.10;;;;;;2622058;52;20930;-63
2021/04/10 10:57:11;;;;;;;5.55;1.25;;;18.90;46.70;;;;;;2360399;53;20953;-65
2021/04/10 10:59:54;;;;;;;3.12;0.90;;;19.00;47.60;;;;;;2609319;52;20997;-63
2021/04/10 11:02:20;;;;;;;3.08;1.00;;;19.00;47.60;;;;;;2370353;53;20943;-63
2021/04/10 11:04:48;;;;;;;2.15;0.70;;;19.00;47.20;;;;;;2369172;53;20969;-62
2021/04/10 11:07:14;;;;;;;3.37;0.77;;;19.10;47.70;;;;;;2370116;53;20949;-62
2021/04/10 11:09:41;;;;;;;3.87;0.93;;;19.20;48.40;;;;;;2368195;53;20995;-64
2021/04/10 11:12:12;;;;;;;2.78;1.00;;;19.40;49.70;;;;;;2348391;53;20898;-63
2021/04/10 11:14:42;;;;;;;2.95;0.55;;;19.70;50.20;;;;;;2345577;54;20914;-67
2021/04/10 11:17:09;;;;;;;2.20;0.90;;;19.90;49.40;;;;;;2337690;53;21045;-63
2021/04/10 11:19:45;;;;;;;2.00;0.60;;;20.10;47.50;;;;;;2337431;53;20917;-64
2021/04/10 11:22:16;;;;;;;1.90;0.65;;;20.20;46.70;;;;;;2310874;54;20989;-63
2021/04/10 11:24:49;;;;;;;2.20;0.82;;;20.30;46.50;;;;;;2356946;53;21724;-63
2021/04/10 11:27:26;;;;;;;2.75;0.82;;;20.40;47.30;;;;;;2339338;53;20921;-63
2021/04/10 11:29:53;;;;;;;1.98;0.80;;;20.50;47.40;;;;;;2338679;53;21013;-63
2021/04/10 11:33:07;;;;;;;2.33;1.15;;;20.60;49.10;;;;;;2352435;53;20929;-63
2021/04/10 11:35:34;;;;;;;1.80;0.80;;;20.80;45.50;;;;;;2350677;53;21001;-65
2021/04/10 11:38:09;;;;;;;2.03;0.80;;;20.90;47.40;;;;;;2343967;53;20955;-65
2021/04/10 11:40:36;;;;;;;2.37;0.68;;;21.00;44.20;;;;;;2337346;53;20936;-64
2021/04/10 11:43:04;;;;;;;2.28;0.68;;;21.00;44.60;;;;;;2335943;53;20967;-64
2021/04/10 11:45:39;;;;;;;1.92;0.65;;;20.90;44.50;;;;;;2578987;53;20976;-66
2021/04/10 11:48:26;;;;;;;1.52;0.55;;;20.90;42.90;;;;;;2583477;52;20980;-66
2021/04/10 11:50:57;;;;;;;2.30;0.70;;;20.90;42.80;;;;;;2331913;53;21000;-62
2021/04/10 11:53:28;;;;;;;2.53;0.90;;;20.90;44.50;;;;;;2337042;53;21500;-64
2021/04/10 11:55:56;;;;;;;4.25;1.65;;;20.90;45.40;;;;;;2581612;53;21354;-64
2021/04/10 11:58:34;;;;;;;2.75;1.12;;;21.00;45.10;;;;;;2337040;53;21539;-65
2021/04/10 12:01:12;;;;;;;3.20;1.33;;;21.10;44.20;;;;;;2357503;53;20931;-64
2021/04/10 12:03:52;;;;;;;2.00;0.80;;;21.20;43.20;;;;;;2615531;52;20986;-64
2021/04/10 12:06:34;;;;;;;1.92;0.70;;;21.30;44.30;;;;;;2351806;53;20960;-65
2021/04/10 12:09:16;;;;;;;4.80;0.95;;;21.40;44.90;;;;;;2590498;53;20981;-62
2021/04/10 12:11:43;;;;;;;1.83;0.70;;;21.70;45.30;;;;;;2557143;53;20977;-64
2021/04/10 12:14:10;;;;;;;2.35;0.80;;;21.80;48.20;;;;;;2337363;53;21060;-62
2021/04/10 12:16:40;;;;;;;1.60;0.52;;;22.10;47.20;;;;;;2333021;53;20933;-64
2021/04/10 12:19:09;;;;;;;2.83;0.85;;;22.40;47.10;;;;;;2594838;52;20952;-62
2021/04/10 12:21:39;;;;;;;2.33;0.90;;;22.60;46.90;;;;;;2589346;53;21020;-63
2021/04/10 12:24:07;;;;;;;2.90;1.52;;;22.80;45.80;;;;;;2361768;53;20958;-62
2021/04/10 12:26:34;;;;;;;2.90;1.23;;;22.90;44.70;;;;;;2602645;52;21006;-61
2021/04/10 12:29:00;;;;;;;2.95;1.20;;;23.00;43.40;;;;;;2616198;52;21490;-62
2021/04/10 12:31:27;;;;;;;3.08;1.10;;;23.10;43.50;;;;;;2616397;52;21010;-63
2021/04/10 12:33:55;;;;;;;2.85;1.05;;;23.10;43.60;;;;;;2366051;53;20974;-62
2021/04/10 12:36:24;;;;;;;2.50;1.00;;;23.10;43.40;;;;;;2356560;53;20954;-62
2021/04/10 12:38:50;;;;;;;2.65;1.25;;;23.10;43.10;;;;;;2364838;53;20993;-62
2021/04/10 12:41:17;;;;;;;4.28;1.48;;;23.00;42.90;;;;;;2338939;54;20977;-61
2021/04/10 12:43:43;;;;;;;3.15;0.90;;;23.00;42.40;;;;;;2346519;53;21411;-61
2021/04/10 12:46:13;;;;;;;2.15;0.82;;;23.10;43.10;;;;;;2357082;53;21312;-65
2021/04/10 12:48:39;;;;;;;1.83;0.68;;;23.10;42.80;;;;;;2364709;53;20947;-62
2021/04/10 12:51:07;;;;;;;2.65;0.85;;;23.20;44.60;;;;;;2615103;52;21673;-60
2021/04/10 12:53:33;;;;;;;2.10;0.85;;;23.40;45.40;;;;;;2358242;53;21800;-65
2021/04/10 12:56:02;;;;;;;2.92;1.00;;;23.50;46.00;;;;;;2354860;53;20927;-62
2021/04/10 12:58:28;;;;;;;2.47;0.73;;;23.70;45.30;;;;;;2364537;53;21526;-63
2021/04/10 13:00:57;;;;;;;2.45;0.70;;;23.90;46.00;;;;;;2616137;52;20915;-63
2021/04/10 13:03:24;;;;;;;3.08;0.80;;;24.10;45.00;;;;;;2609791;52;21819;-62
2021/04/10 13:05:51;;;;;;;1.83;0.60;;;24.20;43.60;;;;;;2600372;52;20977;-63
2021/04/10 13:08:17;;;;;;;1.52;0.60;;;24.30;43.20;;;;;;2345990;53;22463;-66
2021/04/10 13:10:44;;;;;;;1.83;0.70;;;24.30;42.90;;;;;;2331235;53;21445;-61
2021/04/10 13:13:11;;;;;;;1.33;0.60;;;24.40;43.50;;;;;;2325601;53;20976;-63